sensor_id;sensor_type;location;lat;lon;timestamp;P1;durP1;ratioP1;P2;durP2;ratioP2
1004;SDS011;491;53.480;10.174;2022-12-29T00:00:10;2.00;;;0.97;;
1004;SDS011;491;53.480;10.174;2022-12-29T00:02:36;2.47;;;0.97;;
1004;SDS011;491;53.480;10.174;2022-12-29T00:05:02;2.57;;;1.00;;
1004;SDS011;491;53.480;10.174;2022-12-29T00:07:28;1.30;;;0.67;;
1004;SDS011;491;53.480;10.174;2022-12-29T00:09:57;1.47;;;0.20;;
1004;SDS011;491;53.480;10.174;2022-12-29T00:12:23;1.73;;;0.50;;
1004;SDS011;491;53.480;10.174;2022-12-29T00:14:49;2.33;;;0.77;;
1004;SDS011;491;53.480;10.174;2022-12-29T00:18:16;2.70;;;0.77;;
1004;SDS011;491;53.480;10.174;2022-12-29T00:20:23;1.73;;;0.40;;
1004;SDS011;491;53.480;10.174;2022-12-29T00:23:08;1.03;;;0.70;;
1004;SDS011;491;53.480;10.174;2022-12-29T00:25:53;2.20;;;1.20;;
1004;SDS011;491;53.480;10.174;2022-12-29T00:28:38;2.07;;;0.57;;
1004;SDS011;491;53.480;10.174;2022-12-29T00:31:22;2.43;;;1.03;;
1004;SDS011;491;53.480;10.174;2022-12-29T00:34:08;1.40;;;0.60;;
1004;SDS011;491;53.480;10.174;2022-12-29T00:36:53;1.83;;;0.93;;
1004;SDS011;491;53.480;10.174;2022-12-29T00:39:19;1.80;;;0.63;;
1004;SDS011;491;53.480;10.174;2022-12-29T00:42:04;1.77;;;1.13;;
1004;SDS011;491;53.480;10.174;2022-12-29T00:44:49;1.70;;;0.60;;
1004;SDS011;491;53.480;10.174;2022-12-29T00:47:18;1.70;;;0.67;;
1004;SDS011;491;53.480;10.174;2022-12-29T00:49:44;2.17;;;0.80;;
1004;SDS011;491;53.480;10.174;2022-12-29T00:52:11;1.13;;;0.63;;
1004;SDS011;491;53.480;10.174;2022-12-29T00:54:38;1.60;;;0.90;;
1004;SDS011;491;53.480;10.174;2022-12-29T00:57:05;2.37;;;0.90;;
1004;SDS011;491;53.480;10.174;2022-12-29T00:59:31;2.30;;;1.53;;
1004;SDS011;491;53.480;10.174;2022-12-29T01:01:57;2.30;;;1.30;;
1004;SDS011;491;53.480;10.174;2022-12-29T01:04:24;1.93;;;1.13;;
1004;SDS011;491;53.480;10.174;2022-12-29T01:06:50;2.00;;;1.20;;
1004;SDS011;491;53.480;10.174;2022-12-29T01:09:17;2.17;;;1.03;;
1004;SDS011;491;53.480;10.174;2022-12-29T01:12:02;2.93;;;1.27;;
1004;SDS011;491;53.480;10.174;2022-12-29T01:14:28;3.03;;;0.30;;
1004;SDS011;491;53.480;10.174;2022-12-29T01:16:55;1.57;;;0.63;;
1004;SDS011;491;53.480;10.174;2022-12-29T01:19:21;1.93;;;1.27;;
1004;SDS011;491;53.480;10.174;2022-12-29T01:21:53;4.13;;;0.90;;
1004;SDS011;491;53.480;10.174;2022-12-29T01:24:25;1.87;;;1.13;;
1004;SDS011;491;53.480;10.174;2022-12-29T01:26:54;2.00;;;0.63;;
1004;SDS011;491;53.480;10.174;2022-12-29T01:29:20;1.30;;;0.63;;
1004;SDS011;491;53.480;10.174;2022-12-29T01:31:46;1.60;;;0.90;;
1004;SDS011;491;53.480;10.174;2022-12-29T01:34:14;2.13;;;1.17;;
1004;SDS011;491;53.480;10.174;2022-12-29T01:36:40;1.87;;;1.00;;
1004;SDS011;491;53.480;10.174;2022-12-29T01:39:36;1.43;;;0.70;;
1004;SDS011;491;53.480;10.174;2022-12-29T01:42:02;2.43;;;1.03;;
1004;SDS011;491;53.480;10.174;2022-12-29T01:47:19;1.63;;;0.70;;
1004;SDS011;491;53.480;10.174;2022-12-29T01:49:46;3.77;;;0.67;;
1004;SDS011;491;53.480;10.174;2022-12-29T01:52:17;2.23;;;0.40;;
1004;SDS011;491;53.480;10.174;2022-12-29T01:54:43;2.53;;;1.50;;
1004;SDS011;491;53.480;10.174;2022-12-29T01:57:14;1.63;;;0.90;;
1004;SDS011;491;53.480;10.174;2022-12-29T01:59:43;2.60;;;0.93;;
1004;SDS011;491;53.480;10.174;2022-12-29T02:02:11;2.20;;;1.23;;
1004;SDS011;491;53.480;10.174;2022-12-29T02:04:39;3.13;;;1.13;;
1004;SDS011;491;53.480;10.174;2022-12-29T02:07:09;2.27;;;1.57;;
1004;SDS011;491;53.480;10.174;2022-12-29T02:09:37;1.60;;;1.10;;
1004;SDS011;491;53.480;10.174;2022-12-29T02:12:03;1.17;;;1.00;;
1004;SDS011;491;53.480;10.174;2022-12-29T02:14:29;2.37;;;0.90;;
1004;SDS011;491;53.480;10.174;2022-12-29T02:22:09;1.70;;;0.90;;
1004;SDS011;491;53.480;10.174;2022-12-29T02:27:18;2.20;;;0.80;;
1004;SDS011;491;53.480;10.174;2022-12-29T02:29:53;3.90;;;1.20;;
1004;SDS011;491;53.480;10.174;2022-12-29T02:32:35;3.50;;;1.57;;
1004;SDS011;491;53.480;10.174;2022-12-29T02:45:46;3.57;;;1.10;;
1004;SDS011;491;53.480;10.174;2022-12-29T02:56:37;1.43;;;0.50;;
1004;SDS011;491;53.480;10.174;2022-12-29T02:59:03;2.70;;;0.60;;
1004;SDS011;491;53.480;10.174;2022-12-29T03:04:31;2.10;;;0.90;;
1004;SDS011;491;53.480;10.174;2022-12-29T03:07:06;3.63;;;1.03;;
1004;SDS011;491;53.480;10.174;2022-12-29T03:12:23;2.27;;;0.90;;
1004;SDS011;491;53.480;10.174;2022-12-29T03:15:10;1.60;;;0.80;;
1004;SDS011;491;53.480;10.174;2022-12-29T03:17:57;1.90;;;0.63;;
1004;SDS011;491;53.480;10.174;2022-12-29T03:20:35;1.80;;;1.10;;
1004;SDS011;491;53.480;10.174;2022-12-29T03:23:03;1.43;;;0.53;;
1004;SDS011;491;53.480;10.174;2022-12-29T03:25:31;1.73;;;0.50;;
1004;SDS011;491;53.480;10.174;2022-12-29T03:28:03;1.83;;;0.70;;
1004;SDS011;491;53.480;10.174;2022-12-29T03:30:30;2.23;;;0.53;;
1004;SDS011;491;53.480;10.174;2022-12-29T03:32:58;3.80;;;0.90;;
1004;SDS011;491;53.480;10.174;2022-12-29T03:35:25;1.43;;;0.37;;
1004;SDS011;491;53.480;10.174;2022-12-29T03:37:55;2.50;;;0.90;;
1004;SDS011;491;53.480;10.174;2022-12-29T03:40:24;2.67;;;0.80;;
1004;SDS011;491;53.480;10.174;2022-12-29T03:42:51;2.13;;;0.60;;
1004;SDS011;491;53.480;10.174;2022-12-29T03:45:18;1.30;;;0.40;;
1004;SDS011;491;53.480;10.174;2022-12-29T03:47:44;1.23;;;0.80;;
1004;SDS011;491;53.480;10.174;2022-12-29T03:50:13;2.73;;;1.07;;
1004;SDS011;491;53.480;10.174;2022-12-29T03:52:39;1.60;;;0.60;;
1004;SDS011;491;53.480;10.174;2022-12-29T03:55:05;2.27;;;0.53;;
1004;SDS011;491;53.480;10.174;2022-12-29T03:57:34;2.43;;;0.60;;
1004;SDS011;491;53.480;10.174;2022-12-29T04:00:00;1.73;;;0.53;;
1004;SDS011;491;53.480;10.174;2022-12-29T04:02:26;1.90;;;0.50;;
1004;SDS011;491;53.480;10.174;2022-12-29T04:04:52;0.80;;;0.40;;
1004;SDS011;491;53.480;10.174;2022-12-29T04:07:18;0.77;;;0.30;;
1004;SDS011;491;53.480;10.174;2022-12-29T04:09:44;0.80;;;0.30;;
1004;SDS011;491;53.480;10.174;2022-12-29T04:12:09;1.17;;;0.30;;
1004;SDS011;491;53.480;10.174;2022-12-29T04:14:35;1.37;;;0.53;;
1004;SDS011;491;53.480;10.174;2022-12-29T04:17:01;1.43;;;0.70;;
1004;SDS011;491;53.480;10.174;2022-12-29T04:19:27;3.03;;;1.33;;
1004;SDS011;491;53.480;10.174;2022-12-29T04:21:53;1.47;;;0.47;;
1004;SDS011;491;53.480;10.174;2022-12-29T04:24:19;1.93;;;0.40;;
1004;SDS011;491;53.480;10.174;2022-12-29T04:26:45;1.83;;;0.40;;
1004;SDS011;491;53.480;10.174;2022-12-29T04:29:11;1.47;;;0.83;;
1004;SDS011;491;53.480;10.174;2022-12-29T04:31:37;0.93;;;0.43;;
1004;SDS011;491;53.480;10.174;2022-12-29T04:34:03;1.63;;;0.40;;
1004;SDS011;491;53.480;10.174;2022-12-29T04:36:28;3.70;;;0.30;;
1004;SDS011;491;53.480;10.174;2022-12-29T04:38:54;1.10;;;0.50;;
1004;SDS011;491;53.480;10.174;2022-12-29T04:41:20;0.93;;;0.40;;
1004;SDS011;491;53.480;10.174;2022-12-29T04:43:55;1.00;;;0.40;;
1004;SDS011;491;53.480;10.174;2022-12-29T04:46:24;1.27;;;0.20;;
1004;SDS011;491;53.480;10.174;2022-12-29T04:48:50;9.03;;;1.13;;
1004;SDS011;491;53.480;10.174;2022-12-29T04:51:16;1.77;;;0.40;;
1004;SDS011;491;53.480;10.174;2022-12-29T04:53:42;1.33;;;0.30;;
1004;SDS011;491;53.480;10.174;2022-12-29T04:56:08;0.90;;;0.30;;
1004;SDS011;491;53.480;10.174;2022-12-29T04:58:34;1.20;;;0.20;;
1004;SDS011;491;53.480;10.174;2022-12-29T05:01:03;2.20;;;0.43;;
1004;SDS011;491;53.480;10.174;2022-12-29T05:03:29;0.80;;;0.23;;
1004;SDS011;491;53.480;10.174;2022-12-29T05:06:01;0.87;;;0.40;;
1004;SDS011;491;53.480;10.174;2022-12-29T05:08:27;1.17;;;0.40;;
1004;SDS011;491;53.480;10.174;2022-12-29T05:10:53;1.03;;;0.40;;
1004;SDS011;491;53.480;10.174;2022-12-29T05:13:19;1.03;;;0.20;;
1004;SDS011;491;53.480;10.174;2022-12-29T05:15:47;0.50;;;0.20;;
1004;SDS011;491;53.480;10.174;2022-12-29T05:18:13;0.57;;;0.20;;
1004;SDS011;491;53.480;10.174;2022-12-29T05:20:39;0.50;;;0.20;;
1004;SDS011;491;53.480;10.174;2022-12-29T05:23:05;1.10;;;0.30;;
1004;SDS011;491;53.480;10.174;2022-12-29T05:25:31;1.27;;;0.30;;
1004;SDS011;491;53.480;10.174;2022-12-29T05:28:00;0.53;;;0.20;;
1004;SDS011;491;53.480;10.174;2022-12-29T05:30:35;0.80;;;0.20;;
1004;SDS011;491;53.480;10.174;2022-12-29T05:33:01;1.37;;;0.40;;
1004;SDS011;491;53.480;10.174;2022-12-29T05:35:27;1.53;;;0.30;;
1004;SDS011;491;53.480;10.174;2022-12-29T05:37:52;1.10;;;0.30;;
1004;SDS011;491;53.480;10.174;2022-12-29T05:40:18;2.10;;;0.40;;
1004;SDS011;491;53.480;10.174;2022-12-29T05:42:47;0.83;;;0.23;;
1004;SDS011;491;53.480;10.174;2022-12-29T05:45:13;0.93;;;0.40;;
1004;SDS011;491;53.480;10.174;2022-12-29T05:47:39;1.97;;;0.20;;
1004;SDS011;491;53.480;10.174;2022-12-29T05:50:05;1.10;;;0.40;;
1004;SDS011;491;53.480;10.174;2022-12-29T05:52:31;1.13;;;0.20;;
1004;SDS011;491;53.480;10.174;2022-12-29T05:54:57;2.40;;;0.37;;
1004;SDS011;491;53.480;10.174;2022-12-29T05:57:23;0.97;;;0.20;;
1004;SDS011;491;53.480;10.174;2022-12-29T05:59:48;2.87;;;0.30;;
1004;SDS011;491;53.480;10.174;2022-12-29T06:02:17;1.17;;;0.40;;
1004;SDS011;491;53.480;10.174;2022-12-29T06:04:43;3.70;;;0.37;;
1004;SDS011;491;53.480;10.174;2022-12-29T06:07:09;0.73;;;0.37;;
1004;SDS011;491;53.480;10.174;2022-12-29T06:09:35;0.80;;;0.40;;
1004;SDS011;491;53.480;10.174;2022-12-29T06:12:01;0.77;;;0.40;;
1004;SDS011;491;53.480;10.174;2022-12-29T06:14:27;1.33;;;0.30;;
1004;SDS011;491;53.480;10.174;2022-12-29T06:16:53;0.60;;;0.20;;
1004;SDS011;491;53.480;10.174;2022-12-29T06:19:18;0.80;;;0.30;;
1004;SDS011;491;53.480;10.174;2022-12-29T06:21:44;3.20;;;0.43;;
1004;SDS011;491;53.480;10.174;2022-12-29T06:24:13;0.57;;;0.20;;
1004;SDS011;491;53.480;10.174;2022-12-29T06:26:42;0.50;;;0.20;;
1004;SDS011;491;53.480;10.174;2022-12-29T06:29:08;1.23;;;0.50;;
1004;SDS011;491;53.480;10.174;2022-12-29T06:31:34;0.93;;;0.50;;
1004;SDS011;491;53.480;10.174;2022-12-29T06:34:00;0.90;;;0.30;;
1004;SDS011;491;53.480;10.174;2022-12-29T06:36:26;2.00;;;0.37;;
1004;SDS011;491;53.480;10.174;2022-12-29T06:38:52;0.60;;;0.20;;
1004;SDS011;491;53.480;10.174;2022-12-29T06:41:19;0.60;;;0.20;;
1004;SDS011;491;53.480;10.174;2022-12-29T06:43:45;0.50;;;0.20;;
1004;SDS011;491;53.480;10.174;2022-12-29T06:46:11;0.53;;;0.20;;
1004;SDS011;491;53.480;10.174;2022-12-29T06:48:39;0.50;;;0.20;;
1004;SDS011;491;53.480;10.174;2022-12-29T06:51:07;0.40;;;0.20;;
1004;SDS011;491;53.480;10.174;2022-12-29T06:53:33;1.13;;;0.20;;
1004;SDS011;491;53.480;10.174;2022-12-29T06:55:59;0.70;;;0.20;;
1004;SDS011;491;53.480;10.174;2022-12-29T06:58:24;0.60;;;0.20;;
1004;SDS011;491;53.480;10.174;2022-12-29T07:00:53;0.60;;;0.20;;
1004;SDS011;491;53.480;10.174;2022-12-29T07:03:19;0.80;;;0.20;;
1004;SDS011;491;53.480;10.174;2022-12-29T07:05:44;4.03;;;0.37;;
1004;SDS011;491;53.480;10.174;2022-12-29T07:08:10;1.00;;;0.30;;
1004;SDS011;491;53.480;10.174;2022-12-29T07:10:36;1.53;;;0.30;;
1004;SDS011;491;53.480;10.174;2022-12-29T07:13:05;1.00;;;0.30;;
1004;SDS011;491;53.480;10.174;2022-12-29T07:15:36;1.17;;;0.30;;
1004;SDS011;491;53.480;10.174;2022-12-29T07:18:02;0.80;;;0.40;;
1004;SDS011;491;53.480;10.174;2022-12-29T07:20:28;0.80;;;0.30;;
1004;SDS011;491;53.480;10.174;2022-12-29T07:22:54;0.83;;;0.47;;
1004;SDS011;491;53.480;10.174;2022-12-29T07:25:20;1.33;;;0.30;;
1004;SDS011;491;53.480;10.174;2022-12-29T07:27:46;1.87;;;0.70;;
1004;SDS011;491;53.480;10.174;2022-12-29T07:30:13;2.30;;;0.27;;
1004;SDS011;491;53.480;10.174;2022-12-29T07:32:39;0.90;;;0.30;;
1004;SDS011;491;53.480;10.174;2022-12-29T07:35:05;1.77;;;0.87;;
1004;SDS011;491;53.480;10.174;2022-12-29T07:37:31;0.90;;;0.30;;
1004;SDS011;491;53.480;10.174;2022-12-29T07:39:57;0.60;;;0.20;;
1004;SDS011;491;53.480;10.174;2022-12-29T07:42:23;2.27;;;0.30;;
1004;SDS011;491;53.480;10.174;2022-12-29T07:44:49;4.03;;;0.67;;
1004;SDS011;491;53.480;10.174;2022-12-29T07:47:15;0.70;;;0.30;;
1004;SDS011;491;53.480;10.174;2022-12-29T07:49:44;1.40;;;0.40;;
1004;SDS011;491;53.480;10.174;2022-12-29T07:52:10;1.07;;;0.40;;
1004;SDS011;491;53.480;10.174;2022-12-29T07:54:38;0.70;;;0.20;;
1004;SDS011;491;53.480;10.174;2022-12-29T07:57:05;2.50;;;0.70;;
1004;SDS011;491;53.480;10.174;2022-12-29T07:59:33;1.40;;;0.20;;
1004;SDS011;491;53.480;10.174;2022-12-29T08:02:00;1.60;;;0.20;;
1004;SDS011;491;53.480;10.174;2022-12-29T08:04:26;0.60;;;0.20;;
1004;SDS011;491;53.480;10.174;2022-12-29T08:06:54;0.77;;;0.50;;
1004;SDS011;491;53.480;10.174;2022-12-29T08:09:23;0.80;;;0.20;;
1004;SDS011;491;53.480;10.174;2022-12-29T08:11:49;0.80;;;0.20;;
1004;SDS011;491;53.480;10.174;2022-12-29T08:14:15;0.30;;;0.20;;
1004;SDS011;491;53.480;10.174;2022-12-29T08:16:41;0.40;;;0.20;;
1004;SDS011;491;53.480;10.174;2022-12-29T08:19:09;0.50;;;0.20;;
1004;SDS011;491;53.480;10.174;2022-12-29T08:21:35;1.37;;;0.20;;
1004;SDS011;491;53.480;10.174;2022-12-29T08:24:01;1.57;;;0.40;;
1004;SDS011;491;53.480;10.174;2022-12-29T08:26:27;0.53;;;0.20;;
1004;SDS011;491;53.480;10.174;2022-12-29T08:28:53;1.90;;;0.40;;
1004;SDS011;491;53.480;10.174;2022-12-29T08:31:20;2.37;;;0.37;;
1004;SDS011;491;53.480;10.174;2022-12-29T08:33:47;2.40;;;0.20;;
1004;SDS011;491;53.480;10.174;2022-12-29T08:36:13;2.30;;;0.30;;
1004;SDS011;491;53.480;10.174;2022-12-29T08:38:39;0.50;;;0.30;;
1004;SDS011;491;53.480;10.174;2022-12-29T08:41:05;1.00;;;0.23;;
1004;SDS011;491;53.480;10.174;2022-12-29T08:43:31;1.07;;;0.20;;
1004;SDS011;491;53.480;10.174;2022-12-29T08:46:00;0.60;;;0.20;;
1004;SDS011;491;53.480;10.174;2022-12-29T08:48:26;4.10;;;0.30;;
1004;SDS011;491;53.480;10.174;2022-12-29T08:50:52;1.30;;;0.30;;
1004;SDS011;491;53.480;10.174;2022-12-29T08:53:18;0.57;;;0.20;;
1004;SDS011;491;53.480;10.174;2022-12-29T08:55:45;0.60;;;0.20;;
1004;SDS011;491;53.480;10.174;2022-12-29T08:58:11;0.80;;;0.20;;
1004;SDS011;491;53.480;10.174;2022-12-29T09:00:39;5.20;;;0.30;;
1004;SDS011;491;53.480;10.174;2022-12-29T09:03:05;1.30;;;0.10;;
1004;SDS011;491;53.480;10.174;2022-12-29T09:05:31;1.83;;;0.50;;
1004;SDS011;491;53.480;10.174;2022-12-29T09:07:57;1.23;;;0.27;;
1004;SDS011;491;53.480;10.174;2022-12-29T09:10:23;2.10;;;0.20;;
1004;SDS011;491;53.480;10.174;2022-12-29T09:12:49;1.00;;;0.30;;
1004;SDS011;491;53.480;10.174;2022-12-29T09:15:15;1.07;;;0.20;;
1004;SDS011;491;53.480;10.174;2022-12-29T09:17:41;1.10;;;0.23;;
1004;SDS011;491;53.480;10.174;2022-12-29T09:20:11;0.40;;;0.20;;
1004;SDS011;491;53.480;10.174;2022-12-29T09:22:37;0.40;;;0.20;;
1004;SDS011;491;53.480;10.174;2022-12-29T09:25:03;1.27;;;0.20;;
1004;SDS011;491;53.480;10.174;2022-12-29T09:27:29;1.13;;;0.20;;
1004;SDS011;491;53.480;10.174;2022-12-29T09:29:55;0.90;;;0.20;;
1004;SDS011;491;53.480;10.174;2022-12-29T09:32:22;0.83;;;0.20;;
1004;SDS011;491;53.480;10.174;2022-12-29T09:34:47;2.40;;;0.30;;
1004;SDS011;491;53.480;10.174;2022-12-29T09:37:13;2.10;;;0.20;;
1004;SDS011;491;53.480;10.174;2022-12-29T09:39:39;0.50;;;0.10;;
1004;SDS011;491;53.480;10.174;2022-12-29T09:45:00;3.20;;;0.20;;
1004;SDS011;491;53.480;10.174;2022-12-29T09:47:33;1.77;;;0.20;;
1004;SDS011;491;53.480;10.174;2022-12-29T09:50:01;1.10;;;0.20;;
1004;SDS011;491;53.480;10.174;2022-12-29T09:52:29;3.23;;;0.20;;
1004;SDS011;491;53.480;10.174;2022-12-29T09:55:03;2.20;;;0.33;;
1004;SDS011;491;53.480;10.174;2022-12-29T09:57:38;3.70;;;0.20;;
1004;SDS011;491;53.480;10.174;2022-12-29T10:00:10;0.97;;;0.20;;
1004;SDS011;491;53.480;10.174;2022-12-29T10:02:42;3.30;;;0.40;;
1004;SDS011;491;53.480;10.174;2022-12-29T10:18:41;0.77;;;0.20;;
1004;SDS011;491;53.480;10.174;2022-12-29T10:23:47;1.07;;;0.20;;
1004;SDS011;491;53.480;10.174;2022-12-29T10:26:21;1.10;;;0.20;;
1004;SDS011;491;53.480;10.174;2022-12-29T10:28:50;1.67;;;0.20;;
1004;SDS011;491;53.480;10.174;2022-12-29T10:31:24;1.63;;;0.20;;
1004;SDS011;491;53.480;10.174;2022-12-29T10:33:53;1.33;;;0.20;;
1004;SDS011;491;53.480;10.174;2022-12-29T10:36:57;0.73;;;0.20;;
1004;SDS011;491;53.480;10.174;2022-12-29T10:39:15;4.33;;;0.20;;
1004;SDS011;491;53.480;10.174;2022-12-29T10:41:50;2.87;;;0.30;;
1004;SDS011;491;53.480;10.174;2022-12-29T10:44:17;2.20;;;0.50;;
1004;SDS011;491;53.480;10.174;2022-12-29T10:46:53;1.60;;;0.30;;
1004;SDS011;491;53.480;10.174;2022-12-29T10:49:20;2.63;;;0.20;;
1004;SDS011;491;53.480;10.174;2022-12-29T10:51:47;1.33;;;0.30;;
1004;SDS011;491;53.480;10.174;2022-12-29T10:54:16;1.43;;;0.30;;
1004;SDS011;491;53.480;10.174;2022-12-29T10:56:48;3.43;;;0.30;;
1004;SDS011;491;53.480;10.174;2022-12-29T10:59:16;2.17;;;0.40;;
1004;SDS011;491;53.480;10.174;2022-12-29T11:01:52;3.83;;;0.67;;
1004;SDS011;491;53.480;10.174;2022-12-29T11:07:04;1.33;;;0.40;;
1004;SDS011;491;53.480;10.174;2022-12-29T11:09:32;1.17;;;0.30;;
1004;SDS011;491;53.480;10.174;2022-12-29T11:11:59;2.47;;;0.30;;
1004;SDS011;491;53.480;10.174;2022-12-29T11:14:29;0.57;;;0.10;;
1004;SDS011;491;53.480;10.174;2022-12-29T11:16:57;0.80;;;0.17;;
1004;SDS011;491;53.480;10.174;2022-12-29T11:19:25;1.80;;;0.40;;
1004;SDS011;491;53.480;10.174;2022-12-29T11:21:51;2.70;;;0.40;;
1004;SDS011;491;53.480;10.174;2022-12-29T11:24:19;1.70;;;0.40;;
1004;SDS011;491;53.480;10.174;2022-12-29T11:26:45;2.10;;;0.20;;
1004;SDS011;491;53.480;10.174;2022-12-29T11:29:22;3.03;;;0.40;;
1004;SDS011;491;53.480;10.174;2022-12-29T11:31:52;1.40;;;0.20;;
1004;SDS011;491;53.480;10.174;2022-12-29T11:34:23;2.03;;;0.30;;
1004;SDS011;491;53.480;10.174;2022-12-29T11:36:51;5.13;;;0.40;;
1004;SDS011;491;53.480;10.174;2022-12-29T11:41:52;1.53;;;0.20;;
1004;SDS011;491;53.480;10.174;2022-12-29T11:44:19;2.47;;;0.33;;
1004;SDS011;491;53.480;10.174;2022-12-29T11:46:46;2.37;;;0.30;;
1004;SDS011;491;53.480;10.174;2022-12-29T11:49:13;6.30;;;0.50;;
1004;SDS011;491;53.480;10.174;2022-12-29T11:51:45;1.80;;;0.20;;
1004;SDS011;491;53.480;10.174;2022-12-29T11:54:13;1.87;;;0.30;;
1004;SDS011;491;53.480;10.174;2022-12-29T11:56:42;3.10;;;0.40;;
1004;SDS011;491;53.480;10.174;2022-12-29T12:01:55;3.13;;;0.30;;
1004;SDS011;491;53.480;10.174;2022-12-29T12:04:23;0.80;;;0.20;;
1004;SDS011;491;53.480;10.174;2022-12-29T12:07:00;0.77;;;0.20;;
1004;SDS011;491;53.480;10.174;2022-12-29T12:11:59;2.17;;;0.20;;
1004;SDS011;491;53.480;10.174;2022-12-29T12:14:27;1.90;;;0.40;;
1004;SDS011;491;53.480;10.174;2022-12-29T12:16:58;1.90;;;0.30;;
1004;SDS011;491;53.480;10.174;2022-12-29T12:19:36;0.87;;;0.20;;
1004;SDS011;491;53.480;10.174;2022-12-29T12:22:16;1.67;;;0.20;;
1004;SDS011;491;53.480;10.174;2022-12-29T12:24:55;0.70;;;0.20;;
1004;SDS011;491;53.480;10.174;2022-12-29T12:27:24;1.97;;;0.30;;
1004;SDS011;491;53.480;10.174;2022-12-29T12:30:03;3.00;;;0.23;;
1004;SDS011;491;53.480;10.174;2022-12-29T12:34:56;1.50;;;0.20;;
1004;SDS011;491;53.480;10.174;2022-12-29T12:37:40;1.87;;;0.20;;
1004;SDS011;491;53.480;10.174;2022-12-29T12:43:01;2.77;;;0.33;;
1004;SDS011;491;53.480;10.174;2022-12-29T12:50:44;3.83;;;0.60;;
1004;SDS011;491;53.480;10.174;2022-12-29T12:53:26;2.63;;;0.30;;
1004;SDS011;491;53.480;10.174;2022-12-29T12:58:52;2.63;;;0.40;;
1004;SDS011;491;53.480;10.174;2022-12-29T13:01:24;2.37;;;0.27;;
1004;SDS011;491;53.480;10.174;2022-12-29T13:04:06;1.30;;;0.30;;
1004;SDS011;491;53.480;10.174;2022-12-29T13:06:59;3.33;;;0.70;;
1004;SDS011;491;53.480;10.174;2022-12-29T13:09:34;2.00;;;0.30;;
1004;SDS011;491;53.480;10.174;2022-12-29T13:22:38;1.60;;;0.40;;
1004;SDS011;491;53.480;10.174;2022-12-29T13:30:18;1.53;;;0.20;;
1004;SDS011;491;53.480;10.174;2022-12-29T13:32:50;2.43;;;0.20;;
1004;SDS011;491;53.480;10.174;2022-12-29T13:35:26;1.27;;;0.27;;
1004;SDS011;491;53.480;10.174;2022-12-29T13:38:32;5.30;;;0.20;;
1004;SDS011;491;53.480;10.174;2022-12-29T13:40:54;1.83;;;0.30;;
1004;SDS011;491;53.480;10.174;2022-12-29T13:43:21;2.50;;;0.50;;
1004;SDS011;491;53.480;10.174;2022-12-29T13:45:51;1.27;;;0.20;;
1004;SDS011;491;53.480;10.174;2022-12-29T13:48:21;3.03;;;0.23;;
1004;SDS011;491;53.480;10.174;2022-12-29T13:50:51;1.83;;;0.63;;
1004;SDS011;491;53.480;10.174;2022-12-29T13:53:34;2.47;;;0.57;;
1004;SDS011;491;53.480;10.174;2022-12-29T13:56:16;2.83;;;0.37;;
1004;SDS011;491;53.480;10.174;2022-12-29T14:01:40;1.47;;;0.20;;
1004;SDS011;491;53.480;10.174;2022-12-29T14:04:13;2.33;;;0.23;;
1004;SDS011;491;53.480;10.174;2022-12-29T14:06:42;3.47;;;0.40;;
1004;SDS011;491;53.480;10.174;2022-12-29T14:11:54;1.17;;;0.20;;
1004;SDS011;491;53.480;10.174;2022-12-29T14:14:21;1.87;;;0.20;;
1004;SDS011;491;53.480;10.174;2022-12-29T14:16:47;2.50;;;0.20;;
1004;SDS011;491;53.480;10.174;2022-12-29T14:19:24;3.33;;;0.27;;
1004;SDS011;491;53.480;10.174;2022-12-29T14:21:52;0.80;;;0.20;;
1004;SDS011;491;53.480;10.174;2022-12-29T14:27:01;2.20;;;0.30;;
1004;SDS011;491;53.480;10.174;2022-12-29T14:29:50;0.93;;;0.20;;
1004;SDS011;491;53.480;10.174;2022-12-29T14:34:58;4.77;;;0.60;;
1004;SDS011;491;53.480;10.174;2022-12-29T14:37:34;2.13;;;0.83;;
1004;SDS011;491;53.480;10.174;2022-12-29T14:42:47;0.80;;;0.20;;
1004;SDS011;491;53.480;10.174;2022-12-29T14:47:43;1.87;;;0.23;;
1004;SDS011;491;53.480;10.174;2022-12-29T14:50:13;3.10;;;0.20;;
1004;SDS011;491;53.480;10.174;2022-12-29T14:52:56;0.70;;;0.20;;
1004;SDS011;491;53.480;10.174;2022-12-29T14:58:03;8.03;;;0.30;;
1004;SDS011;491;53.480;10.174;2022-12-29T15:00:31;0.80;;;0.20;;
1004;SDS011;491;53.480;10.174;2022-12-29T15:05:50;2.40;;;0.30;;
1004;SDS011;491;53.480;10.174;2022-12-29T15:08:18;2.50;;;0.37;;
1004;SDS011;491;53.480;10.174;2022-12-29T15:10:58;1.20;;;0.20;;
1004;SDS011;491;53.480;10.174;2022-12-29T15:13:36;1.17;;;0.30;;
1004;SDS011;491;53.480;10.174;2022-12-29T15:16:03;1.13;;;0.30;;
1004;SDS011;491;53.480;10.174;2022-12-29T15:18:30;4.47;;;0.77;;
1004;SDS011;491;53.480;10.174;2022-12-29T15:21:03;0.67;;;0.30;;
1004;SDS011;491;53.480;10.174;2022-12-29T15:23:31;3.17;;;0.30;;
1004;SDS011;491;53.480;10.174;2022-12-29T15:26:07;3.10;;;1.30;;
1004;SDS011;491;53.480;10.174;2022-12-29T15:28:41;2.07;;;0.60;;
1004;SDS011;491;53.480;10.174;2022-12-29T15:33:37;2.30;;;0.33;;
1004;SDS011;491;53.480;10.174;2022-12-29T15:36:08;1.60;;;0.60;;
1004;SDS011;491;53.480;10.174;2022-12-29T15:38:35;1.27;;;0.40;;
1004;SDS011;491;53.480;10.174;2022-12-29T15:41:06;2.03;;;0.20;;
1004;SDS011;491;53.480;10.174;2022-12-29T15:43:36;2.30;;;0.20;;
1004;SDS011;491;53.480;10.174;2022-12-29T15:46:04;2.00;;;0.30;;
1004;SDS011;491;53.480;10.174;2022-12-29T15:48:30;5.20;;;0.63;;
1004;SDS011;491;53.480;10.174;2022-12-29T15:50:56;4.33;;;0.33;;
1004;SDS011;491;53.480;10.174;2022-12-29T15:53:24;3.20;;;0.40;;
1004;SDS011;491;53.480;10.174;2022-12-29T15:55:53;2.30;;;1.17;;
1004;SDS011;491;53.480;10.174;2022-12-29T15:58:24;2.90;;;0.73;;
1004;SDS011;491;53.480;10.174;2022-12-29T16:00:55;1.87;;;0.50;;
1004;SDS011;491;53.480;10.174;2022-12-29T16:03:22;2.70;;;0.60;;
1004;SDS011;491;53.480;10.174;2022-12-29T16:05:52;0.67;;;0.40;;
1004;SDS011;491;53.480;10.174;2022-12-29T16:10:50;2.27;;;0.50;;
1004;SDS011;491;53.480;10.174;2022-12-29T16:13:30;2.73;;;0.30;;
1004;SDS011;491;53.480;10.174;2022-12-29T16:15:57;3.00;;;0.70;;
1004;SDS011;491;53.480;10.174;2022-12-29T16:18:27;5.70;;;0.97;;
1004;SDS011;491;53.480;10.174;2022-12-29T16:20:56;3.23;;;0.77;;
1004;SDS011;491;53.480;10.174;2022-12-29T16:23:23;2.63;;;0.63;;
1004;SDS011;491;53.480;10.174;2022-12-29T16:25:50;2.93;;;0.20;;
1004;SDS011;491;53.480;10.174;2022-12-29T16:28:20;1.53;;;1.10;;
1004;SDS011;491;53.480;10.174;2022-12-29T16:30:56;2.60;;;0.40;;
1004;SDS011;491;53.480;10.174;2022-12-29T16:33:32;1.40;;;0.20;;
1004;SDS011;491;53.480;10.174;2022-12-29T16:35:58;2.77;;;0.20;;
1004;SDS011;491;53.480;10.174;2022-12-29T16:38:30;2.10;;;0.70;;
1004;SDS011;491;53.480;10.174;2022-12-29T16:40:57;3.93;;;0.60;;
1004;SDS011;491;53.480;10.174;2022-12-29T16:48:18;2.27;;;0.50;;
1004;SDS011;491;53.480;10.174;2022-12-29T16:50:46;3.83;;;0.50;;
1004;SDS011;491;53.480;10.174;2022-12-29T16:53:20;2.57;;;0.53;;
1004;SDS011;491;53.480;10.174;2022-12-29T16:55:50;3.13;;;0.63;;
1004;SDS011;491;53.480;10.174;2022-12-29T16:58:18;5.80;;;0.63;;
1004;SDS011;491;53.480;10.174;2022-12-29T17:00:44;5.63;;;0.80;;
1004;SDS011;491;53.480;10.174;2022-12-29T17:03:11;5.90;;;0.70;;
1004;SDS011;491;53.480;10.174;2022-12-29T17:05:37;2.43;;;0.57;;
1004;SDS011;491;53.480;10.174;2022-12-29T17:08:24;2.20;;;0.60;;
1004;SDS011;491;53.480;10.174;2022-12-29T17:10:53;2.87;;;0.43;;
1004;SDS011;491;53.480;10.174;2022-12-29T17:13:39;5.43;;;0.93;;
1004;SDS011;491;53.480;10.174;2022-12-29T17:16:05;2.10;;;0.73;;
1004;SDS011;491;53.480;10.174;2022-12-29T17:18:35;2.10;;;0.33;;
1004;SDS011;491;53.480;10.174;2022-12-29T17:21:01;2.47;;;0.60;;
1004;SDS011;491;53.480;10.174;2022-12-29T17:23:31;5.00;;;0.23;;
1004;SDS011;491;53.480;10.174;2022-12-29T17:25:57;3.47;;;0.83;;
1004;SDS011;491;53.480;10.174;2022-12-29T17:28:27;5.70;;;0.50;;
1004;SDS011;491;53.480;10.174;2022-12-29T17:31:00;3.57;;;0.60;;
1004;SDS011;491;53.480;10.174;2022-12-29T17:33:27;1.90;;;0.60;;